Time;durP1;ratioP1;P1;durP2;ratioP2;P2;SDS_P1;SDS_P2;PMS_P1;PMS_P2;Temp;Humidity;BMP_temperature;BMP_pressure;BME280_temperature;BME280_humidity;BME280_pressure;Samples;Min_cycle;Max_cycle;Signal;HPM_P1;HPM_P2
2023/09/22 00:01:33;;;;;;;3.90;2.90;;;;;;;16.56;100.00;100390.11;104075;1265;67442;-50
2023/09/22 00:04:00;;;;;;;3.90;2.20;;;;;;;16.57;100.00;100384.07;103912;1267;71421;-54
2023/09/22 00:06:28;;;;;;;3.70;3.40;;;;;;;16.58;100.00;100385.25;105032;1268;59654;-54
2023/09/22 00:08:56;;;;;;;6.00;2.60;;;;;;;16.61;100.00;100382.95;105063;1266;63341;-52
2023/09/22 00:11:23;;;;;;;4.70;3.60;;;;;;;16.61;100.00;100383.64;103775;1272;72348;-52
2023/09/22 00:13:50;;;;;;;11.00;3.60;;;;;;;16.62;100.00;100383.21;103938;1271;65148;-50
2023/09/22 00:16:18;;;;;;;4.20;2.70;;;;;;;16.62;100.00;100383.77;103921;1271;72954;-49
2023/09/22 00:18:46;;;;;;;8.60;3.20;;;;;;;16.61;100.00;100381.83;103969;1269;60711;-50
2023/09/22 00:21:14;;;;;;;4.30;3.60;;;;;;;16.59;100.00;100376.64;104524;1266;59938;-51
2023/09/22 00:23:41;;;;;;;5.60;4.20;;;;;;;16.58;100.00;100381.12;103819;1271;72977;-50
2023/09/22 00:26:09;;;;;;;2.60;2.40;;;;;;;16.56;100.00;100383.23;104417;1271;68168;-50
2023/09/22 00:28:38;;;;;;;3.50;3.10;;;;;;;16.53;100.00;100380.12;103979;1268;73295;-49
2023/09/22 00:31:05;;;;;;;3.30;3.00;;;;;;;16.52;100.00;100378.73;103787;1269;60483;-53
2023/09/22 00:33:33;;;;;;;3.10;2.50;;;;;;;16.51;100.00;100378.07;104252;1271;59658;-50
2023/09/22 00:36:02;;;;;;;7.80;3.00;;;;;;;16.51;100.00;100380.83;103890;1274;71876;-53
2023/09/22 00:38:29;;;;;;;4.20;2.50;;;;;;;16.50;100.00;100379.23;103731;1273;65520;-49
2023/09/22 00:40:57;;;;;;;3.30;3.10;;;;;;;16.51;100.00;100380.83;103858;1266;72333;-50
2023/09/22 00:43:24;;;;;;;4.50;3.20;;;;;;;16.51;100.00;100381.92;103992;1267;59681;-53
2023/09/22 00:45:52;;;;;;;5.30;3.00;;;;;;;16.50;100.00;100376.33;104005;1272;60207;-51
2023/09/22 00:48:23;;;;;;;6.00;3.90;;;;;;;16.50;100.00;100380.48;105030;1266;71884;-49
2023/09/22 00:50:51;;;;;;;3.40;3.00;;;;;;;16.49;100.00;100381.29;107844;1272;66794;-52
2023/09/22 00:53:18;;;;;;;5.70;4.30;;;;;;;16.49;100.00;100382.61;103728;1271;71507;-53
2023/09/22 00:55:48;;;;;;;3.70;3.40;;;;;;;16.47;100.00;100385.42;108148;1268;61009;-51
2023/09/22 00:58:15;;;;;;;4.80;3.50;;;;;;;16.46;100.00;100388.22;108046;1266;60555;-54
2023/09/22 01:00:43;;;;;;;4.40;3.50;;;;;;;16.44;100.00;100386.16;108467;1259;73134;-51
2023/09/22 01:03:10;;;;;;;5.90;3.40;;;;;;;16.43;100.00;100386.80;108662;1259;67508;-51
2023/09/22 01:05:38;;;;;;;6.90;3.60;;;;;;;16.40;100.00;100389.66;108514;1264;72440;-53
2023/09/22 01:08:05;;;;;;;6.60;3.50;;;;;;;16.39;100.00;100388.33;108550;1262;60456;-52
2023/09/22 01:10:40;;;;;;;5.70;2.50;;;;;;;16.38;100.00;100391.08;108644;1259;60153;-51
2023/09/22 01:13:08;;;;;;;6.40;2.90;;;;;;;16.38;100.00;100389.80;108500;1260;73557;-50
2023/09/22 01:15:37;;;;;;;8.50;4.30;;;;;;;16.38;100.00;100386.89;108542;1261;66797;-51
2023/09/22 01:18:04;;;;;;;3.70;3.20;;;;;;;16.39;100.00;100386.30;108534;1259;75759;-51
2023/09/22 01:20:37;;;;;;;6.00;4.10;;;;;;;16.40;100.00;100383.15;108582;1259;60121;-54
2023/09/22 01:23:06;;;;;;;4.20;3.90;;;;;;;16.42;100.00;100380.88;108598;1261;60018;-54
2023/09/22 01:25:34;;;;;;;4.90;4.50;;;;;;;16.42;100.00;100381.55;108590;1259;73535;-51
2023/09/22 01:28:01;;;;;;;4.10;3.80;;;;;;;16.42;100.00;100385.70;108634;1261;67609;-51
2023/09/22 01:30:29;;;;;;;4.20;3.90;;;;;;;16.41;100.00;100382.00;108532;1264;72480;-54
2023/09/22 01:33:02;;;;;;;6.10;4.90;;;;;;;16.39;100.00;100384.66;108462;1259;58886;-52
2023/09/22 01:35:33;;;;;;;4.50;3.60;;;;;;;16.38;100.00;100386.34;107145;1261;59752;-52
2023/09/22 01:38:08;;;;;;;8.10;3.70;;;;;;;16.36;100.00;100383.39;104309;1262;71915;-50
2023/09/22 01:40:36;;;;;;;4.20;3.50;;;;;;;16.35;100.00;100381.13;104337;1267;65812;-53
2023/09/22 01:43:04;;;;;;;4.00;3.60;;;;;;;16.33;100.00;100380.50;104462;1261;71696;-51
2023/09/22 01:45:31;;;;;;;9.40;3.20;;;;;;;16.32;100.00;100382.23;104355;1264;61769;-52
2023/09/22 01:47:58;;;;;;;3.90;3.60;;;;;;;16.32;100.00;100381.52;104094;1260;60097;-50
2023/09/22 01:50:27;;;;;;;5.20;3.10;;;;;;;16.30;100.00;100381.42;104382;1266;73140;-50
2023/09/22 01:52:54;;;;;;;4.30;3.90;;;;;;;16.28;100.00;100385.00;104254;1263;67432;-53
2023/09/22 01:55:22;;;;;;;6.30;3.80;;;;;;;16.25;100.00;100383.52;104374;1265;71390;-53
2023/09/22 01:57:51;;;;;;;4.70;4.20;;;;;;;16.23;100.00;100380.75;104747;1264;62433;-49
2023/09/22 02:00:18;;;;;;;4.70;4.30;;;;;;;16.21;100.00;100371.84;104453;1264;60092;-49
2023/09/22 02:02:46;;;;;;;4.20;3.90;;;;;;;16.19;100.00;100374.87;105665;1264;73058;-48
2023/09/22 02:05:14;;;;;;;6.60;4.00;;;;;;;16.16;100.00;100372.36;104469;1261;66034;-50
2023/09/22 02:07:42;;;;;;;5.00;4.60;;;;;;;16.12;100.00;100373.30;105364;1261;72700;-49
2023/09/22 02:10:10;;;;;;;4.40;4.00;;;;;;;16.08;100.00;100372.10;104308;1264;61666;-50
2023/09/22 02:12:38;;;;;;;4.20;3.80;;;;;;;16.05;100.00;100370.13;104411;1263;59956;-52
2023/09/22 02:15:12;;;;;;;8.50;3.90;;;;;;;16.01;100.00;100371.63;104213;1261;70878;-50
2023/09/22 02:17:40;;;;;;;11.20;3.20;;;;;;;15.97;100.00;100369.50;104509;1267;65748;-51
2023/09/22 02:20:17;;;;;;;4.60;3.80;;;;;;;15.95;100.00;100367.85;104381;1265;71472;-50
2023/09/22 02:22:45;;;;;;;5.90;4.10;;;;;;;15.92;100.00;100367.27;104556;1266;63120;-52
2023/09/22 02:25:13;;;;;;;4.20;3.10;;;;;;;15.92;100.00;100365.13;104705;1265;60058;-50
2023/09/22 02:27:44;;;;;;;4.90;4.40;;;;;;;15.90;100.00;100365.07;104441;1259;71825;-52
2023/09/22 02:30:12;;;;;;;5.70;4.70;;;;;;;15.89;100.00;100364.96;104298;1264;67095;-52
2023/09/22 02:32:42;;;;;;;9.30;5.40;;;;;;;15.86;100.00;100358.95;104374;1266;72443;-52
2023/09/22 02:35:11;;;;;;;5.10;4.70;;;;;;;15.84;100.00;100362.35;104362;1266;59708;-51
2023/09/22 02:37:38;;;;;;;4.60;4.20;;;;;;;15.80;100.00;100360.04;104511;1264;59728;-51
2023/09/22 02:40:06;;;;;;;6.70;5.20;;;;;;;15.77;100.00;100365.09;104304;1261;73467;-51
2023/09/22 02:42:34;;;;;;;5.60;5.00;;;;;;;15.74;100.00;100364.55;104945;1265;67538;-51
2023/09/22 02:45:01;;;;;;;8.90;3.90;;;;;;;15.70;100.00;100368.40;104351;1259;72839;-52
2023/09/22 02:47:29;;;;;;;3.90;3.10;;;;;;;15.67;100.00;100365.73;104300;1264;59955;-51
2023/09/22 02:49:56;;;;;;;8.10;4.10;;;;;;;15.64;100.00;100368.27;104399;1264;59659;-51
2023/09/22 02:52:23;;;;;;;4.90;3.90;;;;;;;15.63;100.00;100364.56;104430;1259;72652;-51
2023/09/22 02:54:54;;;;;;;3.90;3.40;;;;;;;15.62;100.00;100367.87;104320;1261;66142;-50
2023/09/22 02:57:22;;;;;;;6.80;4.00;;;;;;;15.60;100.00;100369.20;104771;1260;71437;-50
2023/09/22 02:59:56;;;;;;;5.10;4.30;;;;;;;15.59;100.00;100368.36;104720;1260;60466;-50
2023/09/22 03:02:23;;;;;;;4.60;4.10;;;;;;;15.58;100.00;100370.24;104258;1260;59753;-51
2023/09/22 03:04:51;;;;;;;7.10;5.00;;;;;;;15.56;100.00;100372.91;104298;1266;73141;-50
2023/09/22 03:07:18;;;;;;;8.00;5.20;;;;;;;15.54;100.00;100371.01;104504;1264;65813;-50
2023/09/22 03:09:47;;;;;;;5.00;4.60;;;;;;;15.53;100.00;100369.42;104904;1260;72721;-49
2023/09/22 03:12:15;;;;;;;6.10;5.50;;;;;;;15.50;100.00;100370.45;104359;1264;60787;-49
2023/09/22 03:14:42;;;;;;;6.50;4.90;;;;;;;15.48;100.00;100369.53;104736;1259;60439;-50
2023/09/22 03:17:10;;;;;;;4.40;4.10;;;;;;;15.44;100.00;100366.13;104526;1263;72436;-49
2023/09/22 03:19:38;;;;;;;7.20;4.90;;;;;;;15.41;100.00;100369.02;104732;1254;67722;-49
2023/09/22 03:22:05;;;;;;;6.50;4.00;;;;;;;15.39;100.00;100374.77;104561;1260;72491;-49
2023/09/22 03:24:32;;;;;;;4.90;3.80;;;;;;;15.37;100.00;100372.00;104533;1261;60484;-50
2023/09/22 03:27:00;;;;;;;4.60;4.10;;;;;;;15.35;100.00;100373.39;105115;1257;60768;-50
2023/09/22 03:29:27;;;;;;;4.90;4.10;;;;;;;15.34;100.00;100376.16;104713;1254;72598;-50
2023/09/22 03:31:55;;;;;;;6.30;3.70;;;;;;;15.34;100.00;100381.95;104540;1257;66238;-51
2023/09/22 03:34:23;;;;;;;6.70;4.20;;;;;;;15.32;100.00;100379.12;104443;1254;72151;-50
2023/09/22 03:36:51;;;;;;;5.00;4.10;;;;;;;15.32;100.00;100381.65;106488;1254;60646;-52
2023/09/22 03:39:21;;;;;;;5.70;5.00;;;;;;;15.32;100.00;100377.55;106152;1259;60467;-51
2023/09/22 03:41:52;;;;;;;6.80;4.90;;;;;;;15.29;100.00;100385.29;105873;1259;73938;-51
2023/09/22 03:44:20;;;;;;;6.90;5.10;;;;;;;15.26;100.00;100388.19;105552;1255;67037;-52
2023/09/22 03:46:47;;;;;;;10.20;5.20;;;;;;;15.23;100.00;100390.51;108873;1254;72500;-52
2023/09/22 03:49:15;;;;;;;6.40;5.80;;;;;;;15.20;100.00;100387.98;108892;1257;60051;-53
2023/09/22 03:51:43;;;;;;;6.80;4.50;;;;;;;15.18;100.00;100389.54;108827;1254;59165;-52
2023/09/22 03:54:10;;;;;;;7.20;4.10;;;;;;;15.15;100.00;100387.35;108832;1258;72336;-52
2023/09/22 03:56:38;;;;;;;4.80;3.20;;;;;;;15.13;100.00;100389.85;108756;1254;65758;-52
2023/09/22 03:59:05;;;;;;;4.90;4.30;;;;;;;15.11;100.00;100392.80;108761;1256;71470;-52
2023/09/22 04:01:33;;;;;;;5.60;4.00;;;;;;;15.11;100.00;100394.66;108601;1257;60475;-52
2023/09/22 04:04:03;;;;;;;11.60;3.20;;;;;;;15.11;100.00;100395.02;108689;1254;62351;-51
2023/09/22 04:06:31;;;;;;;7.60;3.80;;;;;;;15.11;100.00;100401.52;108642;1256;73849;-52
2023/09/22 04:09:07;;;;;;;3.90;2.10;;;;;;;15.11;100.00;100399.36;108628;1257;67091;-53
2023/09/22 04:11:35;;;;;;;4.90;3.20;;;;;;;15.12;100.00;100400.00;108613;1256;72910;-53
2023/09/22 04:14:02;;;;;;;4.50;4.00;;;;;;;15.14;100.00;100401.34;108702;1257;59067;-52
2023/09/22 04:16:30;;;;;;;4.50;4.10;;;;;;;15.16;100.00;100396.53;108851;1257;59927;-53
2023/09/22 04:18:58;;;;;;;3.90;3.60;;;;;;;15.17;100.00;100394.48;108767;1256;72912;-53
2023/09/22 04:21:26;;;;;;;4.90;4.30;;;;;;;15.18;100.00;100398.59;108700;1257;65748;-53
2023/09/22 04:23:59;;;;;;;7.60;4.00;;;;;;;15.18;100.00;100401.83;108800;1257;72701;-53
2023/09/22 04:26:29;;;;;;;4.70;3.00;;;;;;;15.19;100.00;100409.40;108618;1260;62913;-53
2023/09/22 04:28:57;;;;;;;4.60;3.70;;;;;;;15.19;100.00;100405.95;108632;1257;58836;-51
2023/09/22 04:31:24;;;;;;;4.00;3.50;;;;;;;15.20;100.00;100404.27;106291;1257;73845;-51
2023/09/22 04:33:52;;;;;;;7.70;3.30;;;;;;;15.22;100.00;100401.62;104655;1257;66922;-51
2023/09/22 04:36:21;;;;;;;4.60;3.50;;;;;;;15.25;100.00;100404.31;104383;1260;72798;-51
2023/09/22 04:38:50;;;;;;;4.40;3.70;;;;;;;15.30;100.00;100400.79;105112;1257;61089;-52
2023/09/22 04:41:20;;;;;;;7.40;3.60;;;;;;;15.36;100.00;100400.46;104626;1255;62209;-52
2023/09/22 04:43:48;;;;;;;5.20;4.20;;;;;;;15.43;100.00;100403.46;104737;1260;73855;-50
2023/09/22 04:46:15;;;;;;;9.90;4.00;;;;;;;15.50;100.00;100404.85;104865;1260;65818;-49
2023/09/22 04:48:43;;;;;;;4.20;3.90;;;;;;;15.58;100.00;100407.51;104952;1259;73176;-50
2023/09/22 04:51:11;;;;;;;12.30;4.70;;;;;;;15.66;100.00;100408.48;104718;1260;60500;-50
2023/09/22 04:53:41;;;;;;;5.10;4.70;;;;;;;15.72;100.00;100408.64;104592;1257;60491;-51
2023/09/22 04:56:09;;;;;;;5.00;4.60;;;;;;;15.77;100.00;100408.89;104604;1258;74985;-51
2023/09/22 04:58:40;;;;;;;7.70;4.30;;;;;;;15.80;100.00;100410.52;105284;1257;65850;-50
2023/09/22 05:01:08;;;;;;;5.60;4.20;;;;;;;15.83;100.00;100413.96;104601;1256;72449;-52
2023/09/22 05:03:36;;;;;;;4.10;3.60;;;;;;;15.85;100.00;100408.02;106185;1260;60731;-52
2023/09/22 05:06:09;;;;;;;4.70;3.00;;;;;;;15.89;100.00;100409.30;104735;1254;61044;-52
2023/09/22 05:08:37;;;;;;;10.50;4.70;;;;;;;15.93;100.00;100408.30;104754;1257;72888;-51
2023/09/22 05:11:08;;;;;;;4.40;3.10;;;;;;;15.96;100.00;100407.60;104579;1256;65950;-51
2023/09/22 05:13:36;;;;;;;5.30;3.60;;;;;;;15.99;100.00;100405.58;105763;1256;71465;-50
2023/09/22 05:16:10;;;;;;;10.00;3.80;;;;;;;16.03;100.00;100412.02;104656;1256;60456;-51
2023/09/22 05:18:38;;;;;;;5.50;4.30;;;;;;;16.08;100.00;100408.86;104988;1257;62695;-51
2023/09/22 05:21:06;;;;;;;7.20;4.20;;;;;;;16.13;100.00;100408.72;104749;1256;72741;-51
2023/09/22 05:23:34;;;;;;;6.30;4.50;;;;;;;16.19;100.00;100408.34;104765;1258;66070;-52
2023/09/22 05:26:06;;;;;;;11.30;4.20;;;;;;;16.26;100.00;100407.55;105333;1260;70727;-53
2023/09/22 05:28:34;;;;;;;10.20;3.60;;;;;;;16.33;100.00;100409.88;105033;1260;60451;-53
2023/09/22 05:31:04;;;;;;;9.70;3.70;;;;;;;16.38;100.00;100413.68;104861;1257;60359;-52
2023/09/22 05:33:35;;;;;;;6.80;3.90;;;;;;;16.44;100.00;100415.29;104939;1257;74340;-53
2023/09/22 05:36:03;;;;;;;4.40;3.50;;;;;;;16.50;100.00;100412.79;104917;1257;66989;-49
2023/09/22 05:38:30;;;;;;;7.50;2.40;;;;;;;16.56;100.00;100419.28;104834;1257;73142;-50
2023/09/22 05:40:58;;;;;;;3.90;2.80;;;;;;;16.62;100.00;100416.20;104581;1261;61254;-52
2023/09/22 05:43:26;;;;;;;7.80;2.90;;;;;;;16.70;100.00;100416.80;104658;1256;60451;-53
2023/09/22 05:45:57;;;;;;;10.10;3.00;;;;;;;16.77;100.00;100416.20;104814;1255;74200;-52
2023/09/22 05:48:24;;;;;;;5.00;2.70;;;;;;;16.85;100.00;100420.54;104628;1255;66036;-53
2023/09/22 05:50:59;;;;;;;5.30;2.60;;;;;;;16.93;100.00;100417.48;104750;1260;71453;-54
2023/09/22 05:53:28;;;;;;;10.40;3.00;;;;;;;17.03;100.00;100418.70;104938;1257;60502;-50
2023/09/22 05:56:08;;;;;;;6.10;3.10;;;;;;;17.12;100.00;100419.57;105290;1260;60431;-53
2023/09/22 05:58:35;;;;;;;3.70;2.20;;;;;;;17.19;100.00;100419.42;105374;1255;75761;-53
2023/09/22 06:01:10;;;;;;;5.20;2.30;;;;;;;17.26;100.00;100423.67;104547;1257;65848;-52
2023/09/22 06:03:39;;;;;;;5.90;3.20;;;;;;;17.34;100.00;100425.55;104789;1256;71463;-51
2023/09/22 06:06:11;;;;;;;13.20;3.20;;;;;;;17.42;100.00;100425.94;105135;1256;60574;-53
2023/09/22 06:08:39;;;;;;;5.00;2.10;;;;;;;17.48;100.00;100428.39;104756;1256;60541;-53
2023/09/22 06:11:07;;;;;;;9.40;2.20;;;;;;;17.54;100.00;100426.02;104600;1260;74124;-53
2023/09/22 06:13:35;;;;;;;4.70;1.70;;;;;;;17.60;100.00;100427.77;104473;1255;69058;-52
2023/09/22 06:16:03;;;;;;;5.20;2.30;;;;;;;17.67;100.00;100431.55;105408;1256;71475;-52
2023/09/22 06:18:33;;;;;;;4.70;2.30;;;;;;;17.73;100.00;100433.29;104628;1256;60488;-53
2023/09/22 06:21:01;;;;;;;4.10;1.50;;;;;;;17.80;100.00;100434.99;104431;1257;60554;-52
2023/09/22 06:23:29;;;;;;;5.00;2.00;;;;;;;17.88;100.00;100438.10;104711;1260;72698;-51
2023/09/22 06:26:00;;;;;;;5.00;1.90;;;;;;;17.95;100.00;100438.00;104845;1258;65648;-52
2023/09/22 06:28:29;;;;;;;3.10;1.60;;;;;;;18.04;100.00;100441.01;104490;1256;72925;-52
2023/09/22 06:31:01;;;;;;;5.70;1.60;;;;;;;18.11;100.00;100442.48;107295;1255;60445;-53
2023/09/22 06:33:30;;;;;;;4.80;1.30;;;;;;;18.20;100.00;100446.29;108748;1255;58902;-53
2023/09/22 06:36:02;;;;;;;3.60;1.70;;;;;;;18.27;100.00;100443.77;106128;1260;71799;-53
2023/09/22 06:38:33;;;;;;;7.80;1.90;;;;;;;18.34;100.00;100444.90;105272;1257;66209;-51
2023/09/22 06:41:02;;;;;;;8.90;1.50;;;;;;;18.42;100.00;100443.98;104772;1256;72670;-51
2023/09/22 06:43:31;;;;;;;2.20;1.10;;;;;;;18.48;100.00;100442.10;104778;1260;61240;-52
2023/09/22 06:46:02;;;;;;;5.60;1.00;;;;;;;18.54;100.00;100446.95;106163;1255;60598;-51
2023/09/22 06:48:31;;;;;;;1.90;1.40;;;;;;;18.59;100.00;100451.02;105971;1258;72608;-53
2023/09/22 06:50:58;;;;;;;4.20;1.20;;;;;;;18.64;100.00;100446.67;105601;1260;65689;-52
2023/09/22 06:53:27;;;;;;;4.10;1.30;;;;;;;18.69;100.00;100450.86;104748;1257;71419;-52
2023/09/22 06:56:03;;;;;;;3.50;1.00;;;;;;;18.75;100.00;100450.38;104694;1256;60425;-51
2023/09/22 06:58:31;;;;;;;5.70;1.00;;;;;;;18.82;100.00;100455.68;104661;1255;60637;-51
2023/09/22 07:01:12;;;;;;;2.50;1.20;;;;;;;18.92;100.00;100453.56;104520;1258;73989;-53
2023/09/22 07:03:40;;;;;;;6.50;1.20;;;;;;;19.04;100.00;100453.07;104758;1258;67241;-50
2023/09/22 07:06:10;;;;;;;3.00;1.40;;;;;;;19.14;100.00;100453.02;104636;1258;72752;-51
2023/09/22 07:08:38;;;;;;;3.70;1.20;;;;;;;19.22;100.00;100454.05;108864;1256;58786;-52
2023/09/22 07:11:10;;;;;;;3.70;1.00;;;;;;;19.29;100.00;100456.52;108786;1255;60388;-53
2023/09/22 07:13:37;;;;;;;5.00;0.90;;;;;;;19.34;100.00;100455.38;108725;1255;74295;-53
2023/09/22 07:16:06;;;;;;;5.30;1.00;;;;;;;19.39;100.00;100457.91;108760;1255;67065;-53
2023/09/22 07:18:33;;;;;;;2.90;1.00;;;;;;;19.43;100.00;100461.27;108868;1256;72765;-52
2023/09/22 07:21:00;;;;;;;9.00;0.90;;;;;;;19.49;100.00;100463.41;108696;1257;60659;-53
2023/09/22 07:23:30;;;;;;;9.00;1.20;;;;;;;19.54;100.00;100460.83;108913;1255;60095;-53
2023/09/22 07:26:01;;;;;;;6.10;1.30;;;;;;;19.62;100.00;100464.03;108876;1255;73841;-53
2023/09/22 07:28:29;;;;;;;3.30;0.80;;;;;;;19.71;100.00;100463.45;108839;1255;66749;-54
2023/09/22 07:30:57;;;;;;;4.20;1.40;;;;;;;19.79;100.00;100461.56;104688;1255;73584;-51
2023/09/22 07:33:30;;;;;;;6.30;0.90;;;;;;;19.86;100.00;100461.33;106883;1257;59415;-53
2023/09/22 07:35:58;;;;;;;5.50;1.10;;;;;;;19.96;100.00;100462.07;107041;1259;59937;-52
2023/09/22 07:38:26;;;;;;;8.90;1.50;;;;;;;20.04;100.00;100461.42;105035;1257;73922;-50
2023/09/22 07:40:54;;;;;;;3.60;1.10;;;;;;;20.14;100.00;100465.44;104743;1256;67554;-51
2023/09/22 07:43:21;;;;;;;5.80;1.30;;;;;;;20.24;100.00;100465.54;104718;1259;72674;-51
2023/09/22 07:45:49;;;;;;;6.60;1.10;;;;;;;20.34;100.00;100467.29;106395;1257;60543;-52
2023/09/22 07:48:17;;;;;;;1.40;0.80;;;;;;;20.46;100.00;100470.27;107135;1255;60497;-51
2023/09/22 07:50:44;;;;;;;2.30;1.10;;;;;;;20.56;100.00;100471.80;104822;1255;73909;-49
2023/09/22 07:53:12;;;;;;;7.30;1.20;;;;;;;20.67;100.00;100480.94;104843;1257;66725;-49
2023/09/22 07:55:41;;;;;;;7.00;1.30;;;;;;;20.78;100.00;100480.13;104794;1256;71448;-50
2023/09/22 07:58:09;;;;;;;4.00;0.80;;;;;;;20.89;100.00;100481.96;105162;1255;60601;-50
2023/09/22 08:00:42;;;;;;;4.00;0.80;;;;;;;20.99;100.00;100478.62;105167;1260;60550;-48
2023/09/22 08:03:10;;;;;;;6.20;1.10;;;;;;;21.07;100.00;100478.25;104648;1255;74768;-52
2023/09/22 08:05:39;;;;;;;2.00;1.40;;;;;;;21.15;100.00;100477.85;104887;1257;65850;-51
2023/09/22 08:08:07;;;;;;;6.40;1.00;;;;;;;21.23;100.00;100471.42;108712;1255;71472;-52
2023/09/22 08:10:34;;;;;;;3.90;1.10;;;;;;;21.31;100.00;100470.36;108752;1257;60171;-53
2023/09/22 08:13:02;;;;;;;1.40;1.00;;;;;;;21.39;100.00;100473.02;106872;1256;60703;-49
2023/09/22 08:15:30;;;;;;;4.60;1.40;;;;;;;21.47;100.00;100476.55;104646;1255;73930;-52
2023/09/22 08:17:58;;;;;;;2.20;1.00;;;;;;;21.56;100.00;100472.36;104856;1256;65988;-53
2023/09/22 08:20:25;;;;;;;4.30;1.20;;;;;;;21.65;100.00;100471.20;104607;1255;72032;-52
2023/09/22 08:22:53;;;;;;;2.90;0.90;;;;;;;21.75;100.00;100473.32;104799;1256;60558;-50
2023/09/22 08:25:20;;;;;;;4.90;0.80;;;;;;;21.84;100.00;100468.89;106044;1260;60500;-54
2023/09/22 08:27:48;;;;;;;4.60;0.90;;;;;;;21.93;100.00;100469.92;104879;1260;73827;-51
2023/09/22 08:30:16;;;;;;;2.40;0.90;;;;;;;22.03;100.00;100471.69;105686;1256;65732;-51
2023/09/22 08:32:44;;;;;;;3.40;1.00;;;;;;;22.13;100.00;100472.67;105547;1255;72913;-52
2023/09/22 08:35:13;;;;;;;3.20;0.70;;;;;;;22.23;100.00;100472.14;104988;1255;60557;-50
2023/09/22 08:37:42;;;;;;;1.50;0.70;;;;;;;22.33;100.00;100467.31;104620;1260;60669;-53
2023/09/22 08:40:11;;;;;;;6.80;0.90;;;;;;;22.43;100.00;100465.91;104593;1256;72905;-53
2023/09/22 08:42:39;;;;;;;5.30;0.90;;;;;;;22.52;100.00;100469.52;104890;1259;67669;-52
2023/09/22 08:45:07;;;;;;;0.80;0.60;;;;;;;22.59;100.00;100469.92;104895;1256;72737;-54
2023/09/22 08:47:39;;;;;;;3.30;0.90;;;;;;;22.66;100.00;100470.60;104876;1256;60539;-53
2023/09/22 08:50:10;;;;;;;1.80;0.60;;;;;;;22.75;100.00;100470.62;105041;1260;60582;-51
2023/09/22 08:52:41;;;;;;;5.20;0.60;;;;;;;22.84;100.00;100474.95;104700;1258;72619;-54
2023/09/22 08:55:12;;;;;;;1.60;0.70;;;;;;;22.92;100.00;100476.41;105380;1259;66943;-52
2023/09/22 08:57:42;;;;;;;3.10;0.70;;;;;;;23.01;100.00;100475.80;104884;1261;72100;-53
2023/09/22 09:00:20;;;;;;;3.00;0.70;;;;;;;23.08;100.00;100474.98;104922;1256;60587;-53
2023/09/22 09:02:49;;;;;;;3.90;0.70;;;;;;;23.17;100.00;100475.25;105435;1254;59667;-53
2023/09/22 09:05:27;;;;;;;2.40;0.60;;;;;;;23.25;100.00;100476.54;104851;1256;72642;-53
2023/09/22 09:07:56;;;;;;;1.60;0.60;;;;;;;23.33;100.00;100478.36;105200;1255;67066;-52
2023/09/22 09:10:31;;;;;;;2.90;0.70;;;;;;;23.41;100.00;100481.14;104822;1256;72896;-50
2023/09/22 09:13:01;;;;;;;2.20;0.60;;;;;;;23.50;100.00;100480.60;104662;1254;60838;-52
2023/09/22 09:15:30;;;;;;;1.40;0.50;;;;;;;23.56;100.00;100484.54;104844;1260;60456;-50
2023/09/22 09:18:05;;;;;;;3.20;0.60;;;;;;;23.62;100.00;100485.11;105050;1256;73012;-54
2023/09/22 09:20:34;;;;;;;2.40;0.70;;;;;;;23.69;100.00;100483.79;105062;1255;66030;-52
2023/09/22 09:23:12;;;;;;;1.50;0.60;;;;;;;23.74;100.00;100488.39;104539;1256;73411;-52
2023/09/22 09:25:58;;;;;;;2.20;0.60;;;;;;;23.78;100.00;100487.20;108503;1253;60650;-53
2023/09/22 09:28:26;;;;;;;3.80;0.70;;;;;;;23.75;100.00;100489.21;104563;1261;60451;-51
2023/09/22 09:30:58;;;;;;;4.60;0.90;;;;;;;23.72;100.00;100489.35;104777;1254;73890;-52
2023/09/22 09:33:27;;;;;;;2.20;0.50;;;;;;;23.70;100.00;100491.01;108617;1255;64709;-53
2023/09/22 09:35:55;;;;;;;3.70;0.60;;;;;;;23.69;100.00;100489.03;108791;1254;71833;-53
2023/09/22 09:38:25;;;;;;;2.90;0.60;;;;;;;23.70;100.00;100488.61;108633;1255;58658;-52
2023/09/22 09:40:53;;;;;;;6.40;0.70;;;;;;;23.74;100.00;100489.34;108815;1254;60028;-53
2023/09/22 09:43:21;;;;;;;2.70;0.60;;;;;;;23.83;100.00;100488.38;108896;1254;74307;-53
2023/09/22 09:45:58;;;;;;;2.70;0.70;;;;;;;23.91;100.00;100492.56;108778;1254;65714;-52
2023/09/22 09:48:26;;;;;;;3.10;0.70;;;;;;;24.01;100.00;100489.23;108853;1254;71406;-53
2023/09/22 09:50:59;;;;;;;5.10;0.70;;;;;;;24.12;100.00;100493.70;108818;1254;60341;-54
2023/09/22 09:53:47;;;;;;;7.30;0.60;;;;;;;24.23;100.00;100493.29;108819;1255;58804;-52
2023/09/22 09:56:17;;;;;;;1.00;0.60;;;;;;;24.34;100.00;100495.17;108837;1254;73977;-53
2023/09/22 09:58:48;;;;;;;3.10;0.90;;;;;;;24.41;100.00;100491.13;108812;1254;66350;-51
2023/09/22 10:01:18;;;;;;;5.00;0.50;;;;;;;24.50;100.00;100489.91;108748;1255;71444;-54
2023/09/22 10:03:46;;;;;;;1.10;0.50;;;;;;;24.59;100.00;100499.17;108854;1255;58878;-49
2023/09/22 10:06:16;;;;;;;1.30;0.60;;;;;;;24.66;100.00;100501.03;106056;1256;60533;-52
2023/09/22 10:08:44;;;;;;;5.20;0.80;;;;;;;24.72;100.00;100494.41;104506;1256;73902;-51
2023/09/22 10:11:13;;;;;;;2.40;0.60;;;;;;;24.77;100.00;100498.02;108759;1255;67101;-53
2023/09/22 10:13:40;;;;;;;3.00;0.50;;;;;;;24.80;100.00;100498.76;108719;1255;73199;-54
2023/09/22 10:16:11;;;;;;;4.60;0.50;;;;;;;24.83;100.00;100499.39;108833;1255;58693;-53
2023/09/22 10:18:49;;;;;;;1.90;0.70;;;;;;;24.86;100.00;100498.39;108753;1255;60432;-53
2023/09/22 10:21:29;;;;;;;4.60;0.60;;;;;;;24.89;100.00;100496.48;108741;1255;74357;-53
2023/09/22 10:24:16;;;;;;;5.70;0.60;;;;;;;24.92;100.00;100500.78;108788;1255;67047;-54
2023/09/22 10:26:56;;;;;;;2.80;0.60;;;;;;;24.95;100.00;100499.77;108900;1255;72752;-50
2023/09/22 10:29:33;;;;;;;1.80;0.60;;;;;;;24.98;100.00;100498.19;108755;1255;59048;-52
2023/09/22 10:32:21;;;;;;;0.90;0.70;;;;;;;25.01;100.00;100504.14;105752;1256;60788;-49
2023/09/22 10:35:10;;;;;;;1.30;0.60;;;;;;;25.04;100.00;100500.71;104537;1255;72182;-53
2023/09/22 10:37:56;;;;;;;5.60;0.70;;;;;;;25.07;100.00;100497.88;108761;1255;66081;-54
2023/09/22 10:40:23;;;;;;;2.60;0.70;;;;;;;25.08;100.00;100500.23;107761;1258;72687;-51
2023/09/22 10:42:51;;;;;;;4.40;0.70;;;;;;;25.06;100.00;100497.95;104461;1256;62459;-50
2023/09/22 10:45:30;;;;;;;5.30;0.70;;;;;;;25.07;100.00;100494.80;106723;1255;60310;-50
2023/09/22 10:48:00;;;;;;;3.30;0.60;;;;;;;25.08;100.00;100500.20;104741;1257;74333;-52
2023/09/22 10:50:30;;;;;;;4.30;0.70;;;;;;;25.09;100.00;100499.48;104483;1260;65694;-50
2023/09/22 10:53:04;;;;;;;0.90;0.60;;;;;;;25.13;100.00;100499.44;104986;1256;71810;-53
2023/09/22 10:55:40;;;;;;;2.10;0.70;;;;;;;25.18;100.00;100501.58;104924;1255;60573;-53
2023/09/22 10:58:08;;;;;;;2.00;0.60;;;;;;;25.21;100.00;100501.98;105581;1255;62511;-51
2023/09/22 11:00:39;;;;;;;4.60;0.70;;;;;;;25.24;100.00;100497.63;105379;1255;73903;-50
2023/09/22 11:03:14;;;;;;;2.80;1.00;;;;;;;25.29;100.00;100497.39;104537;1256;65875;-51
2023/09/22 11:05:42;;;;;;;3.30;0.70;;;;;;;25.34;100.00;100496.77;105135;1260;72891;-52
2023/09/22 11:08:13;;;;;;;1.60;0.70;;;;;;;25.39;100.00;100492.34;105453;1255;60433;-52
2023/09/22 11:10:51;;;;;;;4.50;0.70;;;;;;;25.44;100.00;100494.01;105274;1255;60600;-53
2023/09/22 11:13:19;;;;;;;3.20;0.60;;;;;;;25.50;100.00;100494.51;104302;1256;72349;-52
2023/09/22 11:15:57;;;;;;;1.40;0.60;;;;;;;25.56;100.00;100494.68;104605;1256;192849;-52
2023/09/22 11:19:21;;;;;;;0.80;0.40;;;;;;;25.55;100.00;100595.61;101779;1291;601584;-50
2023/09/22 11:21:48;;;;;;;2.90;1.20;;;;;;;25.55;100.00;100576.86;105804;1264;59270;-52